createdAt,value
2019-03-11T00:02:06.878Z,100409.80
2019-03-11T00:04:37.601Z,100409.00
2019-03-11T00:07:06.964Z,100406.94
2019-03-11T00:09:35.224Z,100409.22
2019-03-11T00:12:04.006Z,100413.20
2019-03-11T00:14:39.620Z,100408.88
2019-03-11T00:17:13.540Z,100407.91
2019-03-11T00:19:50.390Z,100410.65
2019-03-11T00:22:21.381Z,100404.95
2019-03-11T00:24:50.795Z,100403.39
2019-03-11T00:27:20.965Z,100407.53
2019-03-11T00:30:12.061Z,100405.00
2019-03-11T00:35:24.722Z,100403.27
2019-03-11T00:37:57.362Z,100390.91
2019-03-11T00:40:27.021Z,100384.20
2019-03-11T00:43:00.517Z,100389.31
2019-03-11T00:45:30.209Z,100382.25
2019-03-11T00:48:02.684Z,100381.09
2019-03-11T00:50:40.954Z,100385.51
2019-03-11T00:53:10.829Z,100393.03
2019-03-11T00:55:41.856Z,100393.31
2019-03-11T00:58:11.738Z,100389.92
2019-03-11T01:00:42.282Z,100390.95
2019-03-11T01:03:26.812Z,100389.14
2019-03-11T01:05:54.627Z,100384.91
2019-03-11T01:08:22.447Z,100389.09
2019-03-11T01:10:50.211Z,100387.67
2019-03-11T01:13:35.432Z,100379.75
2019-03-11T01:16:03.265Z,100382.40
2019-03-11T01:18:31.038Z,100382.34
2019-03-11T01:20:58.825Z,100381.84
2019-03-11T01:23:26.619Z,100382.58
2019-03-11T01:25:54.371Z,100385.91
2019-03-11T01:28:22.275Z,100381.14
2019-03-11T01:30:50.044Z,100387.76
2019-03-11T01:33:17.836Z,100383.17
2019-03-11T01:35:45.970Z,100392.01
2019-03-11T01:38:13.829Z,100388.47
2019-03-11T01:40:41.651Z,100381.52
2019-03-11T01:43:09.396Z,100380.50
2019-03-11T01:46:31.868Z,100370.78
2019-03-11T01:49:14.068Z,100358.95
2019-03-11T01:52:01.318Z,100366.94
2019-03-11T01:54:29.347Z,100356.61
2019-03-11T01:56:57.189Z,100348.87
2019-03-11T01:59:24.999Z,100351.05
2019-03-11T02:01:53.224Z,100344.69
2019-03-11T02:04:21.113Z,100347.05
2019-03-11T02:06:48.846Z,100349.30
2019-03-11T02:09:16.584Z,100307.47
2019-03-11T02:11:44.447Z,100339.75
2019-03-11T02:14:12.217Z,100334.14
2019-03-11T02:16:39.957Z,100335.03
2019-03-11T02:19:07.756Z,100334.52
2019-03-11T02:21:35.513Z,100322.78
2019-03-11T02:24:03.244Z,100321.50
2019-03-11T02:26:30.980Z,100322.16
2019-03-11T02:29:10.255Z,100313.69
2019-03-11T02:31:37.993Z,100315.55
2019-03-11T02:34:05.779Z,100314.23
2019-03-11T02:36:33.532Z,100313.86
2019-03-11T02:39:02.008Z,100309.92
2019-03-11T02:41:29.740Z,100304.69
2019-03-11T02:43:57.454Z,100303.62
2019-03-11T02:46:25.947Z,100297.77
2019-03-11T02:48:53.874Z,100296.47
2019-03-11T02:51:21.606Z,100298.79
2019-03-11T02:53:49.575Z,100291.30
2019-03-11T02:56:17.319Z,100281.84
2019-03-11T02:58:45.063Z,100283.27
2019-03-11T03:01:32.712Z,100278.38
2019-03-11T03:04:04.377Z,100281.05
2019-03-11T03:06:32.122Z,100267.98
2019-03-11T03:09:00.180Z,100263.52
2019-03-11T03:11:28.029Z,100264.61
2019-03-11T03:13:55.743Z,100254.96
2019-03-11T03:16:23.593Z,100254.05
2019-03-11T03:18:51.737Z,100253.72
2019-03-11T03:21:19.491Z,100250.22
2019-03-11T03:23:47.458Z,100251.13
2019-03-11T03:26:15.178Z,100245.92
2019-03-11T03:28:42.920Z,100244.41
2019-03-11T03:31:10.777Z,100245.95
2019-03-11T03:33:38.524Z,100244.52
2019-03-11T03:36:06.264Z,100229.61
2019-03-11T03:38:44.584Z,100245.28
2019-03-11T03:41:12.305Z,100240.81
2019-03-11T03:43:40.112Z,100233.42
2019-03-11T03:46:18.909Z,100230.10
2019-03-11T03:48:37.619Z,100234.20
2019-03-11T03:51:05.561Z,100232.67
2019-03-11T03:53:33.440Z,100236.43
2019-03-11T03:56:01.188Z,100243.58
2019-03-11T03:58:28.911Z,100235.03
2019-03-11T04:00:56.658Z,100226.00
2019-03-11T04:03:24.458Z,100228.88
2019-03-11T04:05:52.568Z,100236.16
2019-03-11T04:08:20.367Z,100232.02
2019-03-11T04:10:48.092Z,100236.22
2019-03-11T04:13:15.862Z,100242.45
2019-03-11T04:15:44.024Z,100252.47
2019-03-11T04:18:11.790Z,100252.92
2019-03-11T04:20:39.586Z,100242.10
2019-03-11T04:23:07.987Z,100245.66
2019-03-11T04:25:35.769Z,100250.99
2019-03-11T04:28:03.596Z,100249.51
2019-03-11T04:30:31.579Z,100257.34
2019-03-11T04:32:59.611Z,100258.70
2019-03-11T04:35:27.371Z,100251.62
2019-03-11T04:37:55.137Z,100259.25
2019-03-11T04:40:23.515Z,100260.87
2019-03-11T04:42:51.302Z,100257.48
2019-03-11T04:45:19.039Z,100257.36
2019-03-11T04:47:46.835Z,100267.77
2019-03-11T04:50:14.629Z,100263.55
2019-03-11T04:52:42.352Z,100277.22
2019-03-11T04:55:10.692Z,100274.84
2019-03-11T04:57:59.977Z,100279.77
2019-03-11T05:00:28.114Z,100284.19
2019-03-11T05:02:55.837Z,100287.66
2019-03-11T05:05:23.579Z,100280.84
2019-03-11T05:07:51.337Z,100295.94
2019-03-11T05:10:19.291Z,100287.17
2019-03-11T05:12:47.519Z,100285.24
2019-03-11T05:15:15.301Z,100288.00
2019-03-11T05:17:43.204Z,100283.52
2019-03-11T05:20:11.114Z,100291.98
2019-03-11T05:22:39.289Z,100284.92
2019-03-11T05:25:07.352Z,100281.66
2019-03-11T05:27:35.157Z,100291.55
2019-03-11T05:30:25.255Z,100294.28
2019-03-11T05:32:41.510Z,100290.56
2019-03-11T05:35:09.386Z,100293.80
2019-03-11T05:37:37.088Z,100294.60
2019-03-11T05:40:04.983Z,100293.88
2019-03-11T05:42:32.717Z,100291.18
2019-03-11T05:45:00.559Z,100299.63
2019-03-11T05:47:28.557Z,100291.10
2019-03-11T05:49:56.360Z,100292.54
2019-03-11T05:52:24.131Z,100242.38
2019-03-11T05:54:52.031Z,100290.14
2019-03-11T05:57:19.884Z,100287.48
2019-03-11T05:59:49.411Z,100286.12
2019-03-11T06:02:17.128Z,100282.55
2019-03-11T06:04:46.065Z,100289.78
2019-03-11T06:07:13.993Z,100290.75
2019-03-11T06:09:46.920Z,100289.41
2019-03-11T06:12:17.222Z,100288.37
2019-03-11T06:14:44.968Z,100287.91
2019-03-11T06:17:12.963Z,100291.34
2019-03-11T06:19:40.723Z,100289.56
2019-03-11T06:22:20.732Z,100289.49
2019-03-11T06:24:48.470Z,100288.81
2019-03-11T06:27:16.208Z,100295.34
2019-03-11T06:29:44.031Z,100295.58
2019-03-11T06:32:11.752Z,100298.45
2019-03-11T06:34:39.520Z,100298.16
2019-03-11T06:37:07.367Z,100302.25
2019-03-11T06:39:35.099Z,100306.13
2019-03-11T06:42:02.838Z,100306.55
2019-03-11T06:44:35.459Z,100296.17
2019-03-11T06:47:06.212Z,100302.33
2019-03-11T06:49:33.973Z,100307.06
2019-03-11T06:52:03.657Z,100318.95
2019-03-11T06:54:31.215Z,100307.97
2019-03-11T06:56:58.980Z,100305.32
2019-03-11T06:59:26.735Z,100307.23
2019-03-11T07:01:54.456Z,100318.30
2019-03-11T07:04:22.344Z,100313.04
2019-03-11T07:06:50.104Z,100317.50
2019-03-11T07:09:17.962Z,100321.13
2019-03-11T07:11:45.811Z,100323.20
2019-03-11T07:14:13.859Z,100334.36
2019-03-11T07:16:41.626Z,100333.40
2019-03-11T07:19:09.456Z,100352.92
2019-03-11T07:21:37.315Z,100329.69
2019-03-11T07:24:05.282Z,100350.33
2019-03-11T07:26:55.092Z,100369.06
2019-03-11T07:29:22.932Z,100388.84
2019-03-11T07:31:50.898Z,100388.50
2019-03-11T07:34:21.561Z,100387.47
2019-03-11T07:36:52.677Z,100385.92
2019-03-11T07:39:20.452Z,100385.77
2019-03-11T07:41:48.220Z,100388.45
2019-03-11T07:44:28.529Z,100391.36
2019-03-11T07:46:56.296Z,100393.22
2019-03-11T07:49:25.244Z,100383.81
2019-03-11T07:52:02.496Z,100388.15
2019-03-11T07:54:35.687Z,100399.91
2019-03-11T07:56:59.230Z,100400.88
2019-03-11T07:59:27.018Z,100403.22
2019-03-11T08:01:54.728Z,100414.61
2019-03-11T08:04:22.479Z,100404.35
2019-03-11T08:06:50.188Z,100417.34
2019-03-11T08:09:17.959Z,100426.64
2019-03-11T08:11:45.678Z,100428.64
2019-03-11T08:14:13.393Z,100429.80
2019-03-11T08:16:41.296Z,100447.81
2019-03-11T08:19:09.006Z,100449.78
2019-03-11T08:21:36.770Z,100449.86
2019-03-11T08:24:04.567Z,100446.00
2019-03-11T08:26:44.845Z,100455.14
2019-03-11T08:29:05.548Z,100472.08
2019-03-11T08:31:33.243Z,100474.82
2019-03-11T08:34:00.968Z,100463.62
2019-03-11T08:36:28.752Z,100473.86
2019-03-11T08:38:56.471Z,100465.61
2019-03-11T08:41:24.213Z,100472.73
2019-03-11T08:43:51.943Z,100461.38
2019-03-11T08:46:19.659Z,100461.89
2019-03-11T08:48:47.415Z,100472.52
2019-03-11T08:51:15.155Z,100463.36
2019-03-11T08:53:43.295Z,100473.22
2019-03-11T08:56:52.629Z,100472.33
2019-03-11T08:59:23.794Z,100473.67
2019-03-11T09:01:51.640Z,100477.30
2019-03-11T09:04:19.410Z,100475.02
2019-03-11T09:06:47.132Z,100482.00
2019-03-11T09:09:14.926Z,100488.48
2019-03-11T09:11:42.667Z,100486.45
2019-03-11T09:14:10.462Z,100484.20
2019-03-11T09:16:38.183Z,100487.34
2019-03-11T09:19:06.176Z,100492.00
2019-03-11T09:21:33.972Z,100491.70
2019-03-11T09:24:04.264Z,100492.94
2019-03-11T09:26:38.335Z,100499.19
2019-03-11T09:29:04.547Z,100501.91
2019-03-11T09:31:32.255Z,100506.83
2019-03-11T09:33:59.981Z,100507.08
2019-03-11T09:36:27.779Z,100515.36
2019-03-11T09:38:55.588Z,100514.53
2019-03-11T09:41:23.390Z,100518.27
2019-03-11T09:43:51.119Z,100520.91
2019-03-11T09:46:18.860Z,100522.92
2019-03-11T09:52:08.507Z,100534.02
2019-03-11T09:54:36.242Z,100532.86
2019-03-11T09:57:03.960Z,100526.00
2019-03-11T09:59:31.719Z,100530.30
2019-03-11T10:01:59.918Z,100529.38
2019-03-11T10:04:27.766Z,100534.66
2019-03-11T10:06:55.575Z,100539.98
2019-03-11T10:09:23.356Z,100535.66
2019-03-11T10:11:52.603Z,100535.02
2019-03-11T10:14:20.393Z,100540.36
2019-03-11T10:16:58.678Z,100540.43
2019-03-11T10:19:26.456Z,100551.41
2019-03-11T10:21:54.164Z,100548.02
2019-03-11T10:24:21.916Z,100549.42
2019-03-11T10:26:49.719Z,100544.41
2019-03-11T10:29:17.447Z,100548.60
2019-03-11T10:31:45.190Z,100555.73
2019-03-11T10:34:12.903Z,100553.69
2019-03-11T10:36:40.666Z,100546.51
2019-03-11T10:39:08.666Z,100560.63
2019-03-11T10:41:36.439Z,100549.37
2019-03-11T10:44:04.167Z,100549.80
2019-03-11T10:46:32.013Z,100559.50
2019-03-11T10:48:59.820Z,100556.69
2019-03-11T10:51:27.565Z,100558.86
2019-03-11T10:53:55.278Z,100560.13
2019-03-11T10:56:27.585Z,100563.04
2019-03-11T10:58:59.062Z,100567.52
2019-03-11T11:01:27.031Z,100567.58
2019-03-11T11:03:54.766Z,100569.17
2019-03-11T11:06:22.533Z,100571.83
2019-03-11T11:08:50.270Z,100574.45
2019-03-11T11:11:17.987Z,100573.30
2019-03-11T11:13:45.783Z,100581.47
2019-03-11T11:16:13.535Z,100586.36
2019-03-11T11:18:41.295Z,100589.61
2019-03-11T11:21:09.136Z,100594.20
2019-03-11T11:23:36.835Z,100587.07
2019-03-11T11:26:04.572Z,100585.22
2019-03-11T11:28:32.356Z,100582.33
2019-03-11T11:31:00.099Z,100584.45
2019-03-11T11:33:27.815Z,100591.14
2019-03-11T11:36:08.911Z,100579.39
2019-03-11T11:38:36.610Z,100582.41
2019-03-11T11:41:04.330Z,100582.34
2019-03-11T11:43:32.050Z,100585.85
2019-03-11T11:46:00.059Z,100592.09
2019-03-11T11:48:27.831Z,100594.72
2019-03-11T11:50:55.533Z,100599.23
2019-03-11T11:53:25.284Z,100600.70
2019-03-11T11:55:57.724Z,100600.44
2019-03-11T11:58:22.202Z,100605.28
2019-03-11T12:00:50.464Z,100613.20
2019-03-11T12:03:18.182Z,100621.52
2019-03-11T12:05:45.889Z,100623.69
2019-03-11T12:08:13.613Z,100634.45
2019-03-11T12:10:43.612Z,100627.91
2019-03-11T12:13:17.978Z,100635.43
2019-03-11T12:15:45.693Z,100638.81
2019-03-11T12:18:13.421Z,100641.13
2019-03-11T12:20:41.206Z,100647.16
2019-03-11T12:23:08.922Z,100647.16
2019-03-11T12:25:36.666Z,100655.52
2019-03-11T12:28:04.378Z,100651.09
2019-03-11T12:30:32.089Z,100653.92
2019-03-11T12:32:59.814Z,100657.72
2019-03-11T12:35:27.641Z,100653.22
2019-03-11T12:37:55.381Z,100650.59
2019-03-11T12:40:23.083Z,100651.48
2019-03-11T12:42:50.843Z,100650.84
2019-03-11T12:45:18.608Z,100658.00
2019-03-11T12:47:49.181Z,100643.25
2019-03-11T12:50:28.934Z,100663.79
2019-03-11T12:52:56.786Z,100661.78
2019-03-11T12:55:24.526Z,100656.42
2019-03-11T12:57:52.245Z,100657.84
2019-03-11T13:00:20.017Z,100665.07
2019-03-11T13:02:47.735Z,100678.98
2019-03-11T13:05:15.466Z,100683.14
2019-03-11T13:07:43.243Z,100685.37
2019-03-11T13:10:12.154Z,100688.91
2019-03-11T13:12:39.896Z,100694.11
2019-03-11T13:15:08.022Z,100695.50
2019-03-11T13:17:35.726Z,100705.39
2019-03-11T13:20:03.488Z,100700.70
2019-03-11T13:22:31.203Z,100709.00
2019-03-11T13:25:01.998Z,100710.33
2019-03-11T13:27:34.543Z,100703.92
2019-03-11T13:30:02.346Z,100709.43
2019-03-11T13:32:30.166Z,100705.41
2019-03-11T13:34:57.871Z,100697.61
2019-03-11T13:37:25.606Z,100705.34
2019-03-11T13:39:53.373Z,100703.56
2019-03-11T13:42:21.103Z,100710.39
2019-03-11T13:44:48.806Z,100711.60
2019-03-11T13:47:16.535Z,100711.66
2019-03-11T13:49:44.765Z,100715.60
2019-03-11T13:52:13.751Z,100720.72
2019-03-11T13:54:42.290Z,100718.93
2019-03-11T13:57:11.020Z,100717.03
2019-03-11T13:59:38.862Z,100721.84
2019-03-11T14:02:07.084Z,100719.55
2019-03-11T14:04:35.533Z,100724.45
2019-03-11T14:07:03.956Z,100728.55
2019-03-11T14:09:32.047Z,100733.44
2019-03-11T14:12:00.334Z,100730.67
2019-03-11T14:14:28.380Z,100735.48
2019-03-11T14:16:57.244Z,100743.33
2019-03-11T14:19:25.466Z,100740.80
2019-03-11T14:21:55.356Z,100749.13
2019-03-11T14:24:23.920Z,100757.34
2019-03-11T14:26:52.076Z,100751.83
2019-03-11T14:29:20.064Z,100754.95
2019-03-11T14:31:47.918Z,100763.14
2019-03-11T14:34:16.164Z,100768.27
2019-03-11T14:36:44.598Z,100774.89
2019-03-11T14:39:14.941Z,100764.12
2019-03-11T14:41:43.319Z,100779.30
2019-03-11T14:44:11.557Z,100792.70
2019-03-11T14:46:40.057Z,100791.02
2019-03-11T14:49:08.459Z,100795.38
2019-03-11T14:51:36.957Z,100802.17
2019-03-11T14:54:05.495Z,100800.31
2019-03-11T14:56:34.035Z,100811.48
2019-03-11T14:59:02.338Z,100811.47
2019-03-11T15:01:30.798Z,100807.90
2019-03-11T15:03:59.222Z,100814.46
2019-03-11T15:06:27.396Z,100817.61
2019-03-11T15:08:55.429Z,100821.63
2019-03-11T15:11:23.854Z,100831.77
2019-03-11T15:13:52.159Z,100825.97
2019-03-11T15:16:20.662Z,100828.91
2019-03-11T15:18:49.148Z,100829.60
2019-03-11T15:21:17.616Z,100831.81
2019-03-11T15:23:45.644Z,100845.03
2019-03-11T15:26:24.510Z,100851.81
2019-03-11T15:28:44.386Z,100853.91
2019-03-11T15:31:13.133Z,100858.95
2019-03-11T15:33:41.773Z,100867.39
2019-03-11T15:36:10.411Z,100864.18
2019-03-11T15:38:38.837Z,100869.59
2019-03-11T15:41:07.239Z,100869.16
2019-03-11T15:43:35.609Z,100878.49
2019-03-11T15:46:03.729Z,100885.77
2019-03-11T15:48:32.266Z,100882.53
2019-03-11T15:51:00.501Z,100887.95
2019-03-11T15:53:29.282Z,100893.24
2019-03-11T15:55:57.924Z,100897.84
2019-03-11T15:58:26.275Z,100902.77
2019-03-11T16:00:54.642Z,100908.56
2019-03-11T16:03:22.493Z,100908.93
2019-03-11T16:05:50.690Z,100921.06
2019-03-11T16:08:19.019Z,100925.59
2019-03-11T16:10:47.480Z,100933.97
2019-03-11T16:13:15.286Z,100939.16
2019-03-11T16:15:43.362Z,100949.34
2019-03-11T16:18:11.767Z,100959.50
2019-03-11T16:20:39.899Z,100960.19
2019-03-11T16:23:08.153Z,100964.17
2019-03-11T16:25:36.491Z,100973.78
2019-03-11T16:28:04.355Z,100975.84
2019-03-11T16:30:32.486Z,100973.97
2019-03-11T16:33:01.274Z,100989.95
2019-03-11T16:35:29.372Z,100999.34
2019-03-11T16:37:58.034Z,100993.33
2019-03-11T16:40:26.400Z,100995.57
2019-03-11T16:42:54.310Z,101003.85
2019-03-11T16:45:23.343Z,101005.66
2019-03-11T16:47:51.508Z,101011.53
2019-03-11T16:50:19.675Z,101010.13
2019-03-11T16:52:49.225Z,101018.49
2019-03-11T16:55:39.738Z,101029.55
2019-03-11T16:58:07.522Z,101036.30
2019-03-11T17:00:38.101Z,101040.59
2019-03-11T17:03:06.945Z,101048.54
2019-03-11T17:05:36.301Z,101055.26
2019-03-11T17:08:04.230Z,101066.36
2019-03-11T17:10:32.408Z,101071.27
2019-03-11T17:13:01.525Z,101073.09
2019-03-11T17:15:30.161Z,101085.52
2019-03-11T17:18:17.525Z,101096.81
2019-03-11T17:20:45.365Z,101093.78
2019-03-11T17:23:13.626Z,101102.27
2019-03-11T17:25:41.431Z,101106.04
2019-03-11T17:28:09.212Z,101116.80
2019-03-11T17:30:37.970Z,101124.97
2019-03-11T17:33:22.918Z,101135.17
2019-03-11T17:35:51.106Z,101136.70
2019-03-11T17:38:19.537Z,101144.36
2019-03-11T17:40:48.939Z,101149.98
2019-03-11T17:43:17.649Z,101152.89
2019-03-11T17:45:45.781Z,101166.08
2019-03-11T17:48:14.005Z,101172.92
2019-03-11T17:50:43.478Z,101182.84
2019-03-11T17:53:19.646Z,101181.84
2019-03-11T17:55:41.357Z,101181.22
2019-03-11T17:58:10.543Z,101187.17
2019-03-11T18:00:40.407Z,101194.46
2019-03-11T18:03:11.951Z,101212.14
2019-03-11T18:05:40.026Z,101220.23
2019-03-11T18:08:08.804Z,101225.20
2019-03-11T18:10:36.883Z,101224.05
2019-03-11T18:13:04.855Z,101225.01
2019-03-11T18:15:33.013Z,101234.80
2019-03-11T18:18:02.390Z,101243.97
2019-03-11T18:20:30.739Z,101241.98
2019-03-11T18:23:00.124Z,101258.72
2019-03-11T18:25:28.212Z,101264.58
2019-03-11T18:27:56.971Z,101266.06
2019-03-11T18:30:25.914Z,101272.19
2019-03-11T18:32:53.924Z,101276.70
2019-03-11T18:35:24.669Z,101289.36
2019-03-11T18:38:04.949Z,101298.65
2019-03-11T18:40:33.103Z,101300.48
2019-03-11T18:43:02.643Z,101312.95
2019-03-11T18:45:40.841Z,101316.48
2019-03-11T18:48:09.319Z,101320.01
2019-03-11T18:50:39.362Z,101323.89
2019-03-11T18:53:10.118Z,101323.89
2019-03-11T18:55:43.350Z,101319.20
2019-03-11T18:58:12.632Z,101356.22
2019-03-11T19:00:41.354Z,101359.66
2019-03-11T19:03:09.246Z,101354.23
2019-03-11T19:05:37.214Z,101353.03
2019-03-11T19:08:05.359Z,101356.67
2019-03-11T19:10:34.045Z,101363.58
2019-03-11T19:13:02.618Z,101363.17
2019-03-11T19:15:30.502Z,101365.96
2019-03-11T19:17:58.486Z,101360.15
2019-03-11T19:20:26.659Z,101350.70
2019-03-11T19:22:55.237Z,101364.95
2019-03-11T19:25:27.703Z,101367.75
2019-03-11T19:27:55.617Z,101385.03
2019-03-11T19:30:24.107Z,101372.11
2019-03-11T19:32:52.115Z,101383.79
2019-03-11T19:35:21.666Z,101383.55
2019-03-11T19:37:50.408Z,101395.81
2019-03-11T19:40:22.032Z,101407.25
2019-03-11T19:42:48.773Z,101403.77
2019-03-11T19:45:17.649Z,101410.61
2019-03-11T19:47:47.875Z,101404.30
2019-03-11T19:50:19.640Z,101411.01
2019-03-11T19:52:57.790Z,101414.95
2019-03-11T19:55:17.775Z,101422.63
2019-03-11T19:57:45.907Z,101427.55
2019-03-11T20:00:15.110Z,101437.43
2019-03-11T20:02:43.272Z,101447.45
2019-03-11T20:05:11.965Z,101447.14
2019-03-11T20:07:40.132Z,101449.86
2019-03-11T20:10:08.792Z,101459.30
2019-03-11T20:12:36.824Z,101466.86
2019-03-11T20:15:05.393Z,101465.96
2019-03-11T20:17:34.167Z,101471.28
2019-03-11T20:20:02.164Z,101466.41
2019-03-11T20:22:30.127Z,101465.47
2019-03-11T20:24:57.958Z,101471.73
2019-03-11T20:27:26.169Z,101473.48
2019-03-11T20:29:54.073Z,101483.77
2019-03-11T20:32:24.214Z,101479.70
2019-03-11T20:34:52.223Z,101481.94
2019-03-11T20:40:14.994Z,101502.58
2019-03-11T20:42:43.060Z,101498.03
2019-03-11T20:45:28.952Z,101496.20
2019-03-11T20:47:56.722Z,101497.36
2019-03-11T20:50:24.515Z,101504.34
2019-03-11T20:52:52.530Z,101506.59
2019-03-11T20:55:20.351Z,101514.50
2019-03-11T20:57:48.173Z,101517.77
2019-03-11T21:00:17.263Z,101530.91
2019-03-11T21:02:45.143Z,101534.09
2019-03-11T21:05:35.370Z,101536.36
2019-03-11T21:08:02.057Z,101544.70
2019-03-11T21:10:29.962Z,101549.38
2019-03-11T21:12:57.800Z,101556.98
2019-03-11T21:15:26.594Z,101571.25
2019-03-11T21:17:55.796Z,101570.44
2019-03-11T21:20:23.564Z,101561.49
2019-03-11T21:22:51.444Z,101563.16
2019-03-11T21:25:21.173Z,101568.20
2019-03-11T21:27:49.513Z,101566.70
2019-03-11T21:30:18.308Z,101571.17
2019-03-11T21:32:46.182Z,101572.86
2019-03-11T21:35:14.152Z,101578.16
2019-03-11T21:38:05.901Z,101568.84
2019-03-11T21:40:33.734Z,101566.20
2019-03-11T21:43:01.516Z,101567.58
2019-03-11T21:45:33.856Z,101563.22
2019-03-11T21:47:58.723Z,101576.14
2019-03-11T21:50:26.447Z,101576.10
2019-03-11T21:52:55.694Z,101583.77
2019-03-11T21:58:28.308Z,101602.41
2019-03-11T22:00:56.233Z,101607.88
2019-03-11T22:03:24.140Z,101612.00
2019-03-11T22:06:06.623Z,101618.33
2019-03-11T22:08:34.506Z,101622.80
2019-03-11T22:11:02.459Z,101614.30
2019-03-11T22:20:00.623Z,101620.66
2019-03-11T22:22:28.410Z,101632.05
2019-03-11T22:24:56.565Z,101631.25
2019-03-11T22:27:24.316Z,101627.27
2019-03-11T22:29:52.107Z,101626.87
2019-03-11T22:32:31.488Z,101634.95
2019-03-11T22:35:11.680Z,101646.16
2019-03-11T22:37:31.071Z,101643.95
2019-03-11T22:39:58.561Z,101651.55
2019-03-11T22:43:06.268Z,101647.52
2019-03-11T22:50:11.336Z,101665.92
2019-03-11T22:53:10.050Z,101663.75
2019-03-11T22:59:38.677Z,101686.06
2019-03-11T23:02:22.936Z,101688.70
2019-03-11T23:11:41.330Z,101702.16
2019-03-11T23:14:43.482Z,101708.42
2019-03-11T23:36:35.982Z,101733.88
2019-03-11T23:41:35.830Z,101727.22
2019-03-11T23:44:03.619Z,101724.16
2019-03-11T23:46:31.388Z,101597.45
2019-03-11T23:48:59.287Z,101722.81
2019-03-11T23:51:27.077Z,101724.59
2019-03-11T23:53:54.918Z,101725.46
2019-03-11T23:56:22.677Z,101728.19
2019-03-11T23:58:50.434Z,101725.95
